Tolten — D5AD7 — position and weather

sailwx.info

Track history (hours):
 
Tides and Currents Weather Stations Pressure Air Temp Water Temp Dewpoint Dewpoint Depression Visibility Wind Speed Wind Dir Waves Ship Positions

Tolten

Last reported at 2017-Nov-19 17:25 UTC. Time now 2017-Nov-19 18:20 UTC.
Position N 43°02' E 009°36'.

Length 300 m; draft 8 m.

Type: Ship (hazmat cat D). MMSI: 636015355.

Date/timePositionNaut miles runAvg speedWind from/ knotsBaromVisibWave heightAir tempDewpointWater temp
2017-Nov-19 17:25N 43°02' E 009°36'819.8
2017-Nov-19 17:00N 43°10' E 009°36'1020.6
2017-Nov-19 16:30N 43°20' E 009°39'1020.8
2017-Nov-19 16:00N 43°30' E 009°42'1021.0
2017-Nov-19 15:30N 43°40' E 009°45'1020.8
2017-Nov-19 15:00N 43°50' E 009°48'1019.6
2017-Nov-19 14:30N 43°60' E 009°52'611.7
2017-Nov-19 14:00N 44°06' E 009°51'1 1.4
2017-Nov-19 13:22N 44°06' E 009°51'0 0.0
2017-Nov-19 12:58N 44°06' E 009°51'0 0.0
2017-Nov-19 12:28N 44°06' E 009°51'0 0.0
2017-Nov-19 11:58N 44°06' E 009°51'0 0.0
2017-Nov-19 11:28N 44°06' E 009°51'0 0.0
2017-Nov-19 10:58N 44°06' E 009°51'0 0.0
2017-Nov-19 10:28N 44°06' E 009°51'0 0.0
2017-Nov-19 09:58N 44°06' E 009°51'0 0.0
2017-Nov-19 09:28N 44°06' E 009°51'0 0.0
2017-Nov-19 08:58N 44°06' E 009°51'0 0.0
2017-Nov-19 08:28N 44°06' E 009°51'0 0.0
2017-Nov-19 07:58N 44°06' E 009°51'0 0.0
2017-Nov-19 07:28N 44°06' E 009°51'0 0.0
2017-Nov-19 06:58N 44°06' E 009°51'0 0.0
2017-Nov-19 06:28N 44°06' E 009°51'0 0.0
2017-Nov-19 05:58N 44°06' E 009°51'0 0.0
2017-Nov-19 05:28N 44°06' E 009°51'0 0.0
2017-Nov-19 04:58N 44°06' E 009°51'0 0.0
2017-Nov-19 04:28N 44°06' E 009°51'0 0.0
2017-Nov-19 03:58N 44°06' E 009°51'0 0.0
2017-Nov-19 03:25N 44°06' E 009°51'0 0.0
2017-Nov-19 02:58N 44°06' E 009°51'0 0.0
2017-Nov-19 02:25N 44°06' E 009°51'0 0.0
2017-Nov-19 01:58N 44°06' E 009°51'0 0.0
2017-Nov-19 01:25N 44°06' E 009°51'0 0.0
2017-Nov-19 00:58N 44°06' E 009°51'0 0.0
2017-Nov-19 00:28N 44°06' E 009°51'0 0.0
2017-Nov-18 23:55N 44°06' E 009°51'0 0.0
2017-Nov-18 23:28N 44°06' E 009°51'0 0.0
2017-Nov-18 22:58N 44°06' E 009°51'0 0.0
2017-Nov-18 22:28N 44°06' E 009°51'0 0.0
2017-Nov-18 22:01N 44°06' E 009°51'1 1.4
2017-Nov-18 21:30N 44°06' E 009°51'5 9.1
2017-Nov-18 21:01N 44°02' E 009°54'612.1
2017-Nov-18 20:30N 43°56' E 009°56'4 7.5
2017-Nov-18 20:01N 43°53' E 009°52'0 0.7
2017-Nov-18 19:31N 43°53' E 009°52'0 0.6
2017-Nov-18 19:01N 43°52' E 009°52'0 0.6
2017-Nov-18 18:31N 43°52' E 009°52'0 0.6
2017-Nov-18 18:00N 43°52' E 009°52'0 0.6
2017-Nov-18 17:30N 43°52' E 009°51'0 0.6
2017-Nov-18 17:01N 43°51' E 009°51'1 2.0
2017-Nov-18 16:31N 43°51' E 009°52'2 3.8
2017-Nov-18 16:01N 43°53' E 009°52'0 0.8
2017-Nov-18 15:31N 43°53' E 009°52'0 0.6
2017-Nov-18 15:01N 43°52' E 009°52'0 0.6
2017-Nov-18 14:31N 43°52' E 009°51'5 9.2
2017-Nov-18 14:01N 43°51' E 009°45'612.5
2017-Nov-18 13:31N 43°55' E 009°39'612.1
2017-Nov-18 13:01N 43°58' E 009°32'612.0
2017-Nov-18 12:31N 44°02' E 009°25'612.2
2017-Nov-18 12:01N 44°06' E 009°19'612.2
2017-Nov-18 11:31N 44°10' E 009°12'612.7
2017-Nov-18 11:01N 44°14' E 009°05'612.4
2017-Nov-18 10:31N 44°18' E 008°59'510.6
2017-Nov-18 10:01N 44°23' E 008°56'2 3.1
2017-Nov-18 09:30N 44°24' E 008°55'0 0.0
2017-Nov-18 09:00N 44°24' E 008°55'0 0.0
2017-Nov-18 08:30N 44°24' E 008°55'0 0.0
2017-Nov-18 07:57N 44°24' E 008°55'0 0.0
2017-Nov-18 07:30N 44°24' E 008°55'0 0.0
2017-Nov-18 07:00N 44°24' E 008°55'0 0.0
2017-Nov-18 06:30N 44°24' E 008°55'0 0.0
2017-Nov-18 06:00N 44°24' E 008°55'0 0.0
2017-Nov-18 05:27N 44°24' E 008°55'0 0.0
2017-Nov-18 04:57N 44°24' E 008°55'0 0.0
2017-Nov-18 04:27N 44°24' E 008°55'0 0.0
2017-Nov-18 04:00N 44°24' E 008°55'0 0.0
2017-Nov-18 03:27N 44°24' E 008°55'0 0.0
2017-Nov-18 03:00N 44°24' E 008°55'0 0.0
2017-Nov-18 02:30N 44°24' E 008°55'0 0.0
2017-Nov-18 02:00N 44°24' E 008°55'0 0.0
2017-Nov-18 01:30N 44°24' E 008°55'0 0.0
2017-Nov-18 01:00N 44°24' E 008°55'0 0.0
2017-Nov-18 00:30N 44°24' E 008°55'0 0.0
2017-Nov-18 00:00N 44°24' E 008°55'0 0.0
2017-Nov-17 23:30N 44°24' E 008°55'0 0.0
2017-Nov-17 23:00N 44°24' E 008°55'0 0.0
2017-Nov-17 22:30N 44°24' E 008°55'0 0.0
2017-Nov-17 22:00N 44°24' E 008°55'0 0.0
2017-Nov-17 21:30N 44°24' E 008°55'0 0.0
2017-Nov-17 21:00N 44°24' E 008°55'0 0.0
2017-Nov-17 20:30N 44°24' E 008°55'0 0.0
2017-Nov-17 20:00N 44°24' E 008°55'0 0.0
2017-Nov-17 19:30N 44°24' E 008°55'0 0.0
2017-Nov-17 19:00N 44°24' E 008°55'0 0.0
2017-Nov-17 18:30N 44°24' E 008°55'0 0.0
2017-Nov-17 18:00N 44°24' E 008°55'0 0.0
2017-Nov-17 17:30N 44°24' E 008°55'0 0.0
2017-Nov-17 17:00N 44°24' E 008°55'0 0.0
2017-Nov-17 16:30N 44°24' E 008°55'0 0.0
2017-Nov-17 16:00N 44°24' E 008°55'0 0.0
2017-Nov-17 15:30N 44°24' E 008°55'0 0.0
2017-Nov-17 15:00N 44°24' E 008°55'0 0.0
2017-Nov-17 14:30N 44°24' E 008°55'0 0.0
2017-Nov-17 14:00N 44°24' E 008°55'0 0.0
2017-Nov-17 13:27N 44°24' E 008°55'0 0.0
2017-Nov-17 13:00N 44°24' E 008°55'0 0.0
2017-Nov-17 12:27N 44°24' E 008°55'0 0.0
2017-Nov-17 12:00N 44°24' E 008°55'0 0.0
2017-Nov-17 11:30N 44°24' E 008°55'0 0.0
2017-Nov-17 11:00N 44°24' E 008°55'0 0.0
2017-Nov-17 10:30N 44°24' E 008°55'0 0.0
2017-Nov-17 10:00N 44°24' E 008°55'0 0.0
2017-Nov-17 09:30N 44°24' E 008°55'0 0.0
2017-Nov-17 08:57N 44°24' E 008°55'0 0.0
2017-Nov-17 08:30N 44°24' E 008°55'0 0.0
2017-Nov-17 08:00N 44°24' E 008°55'0 0.0
2017-Nov-17 07:30N 44°24' E 008°55'0 0.0
2017-Nov-17 07:00N 44°24' E 008°55'0 0.0
2017-Nov-17 06:30N 44°24' E 008°55'0 0.0
2017-Nov-17 06:00N 44°24' E 008°55'0 0.0
2017-Nov-17 05:30N 44°24' E 008°55'0 0.0
2017-Nov-17 05:00N 44°24' E 008°55'0 0.0
2017-Nov-17 04:30N 44°24' E 008°55'0 0.0
2017-Nov-17 04:00N 44°24' E 008°55'0 0.0
2017-Nov-17 03:30N 44°24' E 008°55'0 0.0
2017-Nov-17 03:00N 44°24' E 008°55'0 0.0
2017-Nov-17 02:30N 44°24' E 008°55'0 0.0
2017-Nov-17 02:00N 44°24' E 008°55'0 0.0
2017-Nov-17 01:30N 44°24' E 008°55'0 0.0
2017-Nov-17 01:00N 44°24' E 008°55'0 0.0
2017-Nov-17 00:27N 44°24' E 008°55'0 0.0
2017-Nov-17 00:00N 44°24' E 008°55'0 0.0
2017-Nov-16 23:30N 44°24' E 008°55'0 0.0
2017-Nov-16 22:57N 44°24' E 008°55'0 0.0
2017-Nov-16 22:30N 44°24' E 008°55'0 0.0
2017-Nov-16 21:57N 44°24' E 008°55'0 0.0
2017-Nov-16 21:30N 44°24' E 008°55'0 0.0
2017-Nov-16 20:57N 44°24' E 008°55'0 0.0
2017-Nov-16 20:30N 44°24' E 008°55'0 0.0
2017-Nov-16 20:00N 44°24' E 008°55'0 0.0
2017-Nov-16 19:30N 44°24' E 008°55'0 0.0
2017-Nov-16 19:00N 44°24' E 008°55'0 0.0
2017-Nov-16 18:30N 44°24' E 008°55'0 0.0
2017-Nov-16 18:00N 44°24' E 008°55'0 0.0
2017-Nov-16 17:30N 44°24' E 008°55'0 0.0
2017-Nov-16 17:00N 44°24' E 008°55'0 0.0
2017-Nov-16 16:30N 44°24' E 008°55'0 0.0
2017-Nov-16 16:00N 44°24' E 008°55'0 0.0
2017-Nov-16 15:30N 44°24' E 008°55'0 0.0
2017-Nov-16 15:00N 44°24' E 008°55'0 0.0
2017-Nov-16 14:30N 44°24' E 008°55'0 0.0
2017-Nov-16 14:00N 44°24' E 008°55'0 0.0
2017-Nov-16 13:30N 44°24' E 008°55'0 0.0
2017-Nov-16 13:00N 44°24' E 008°55'0 0.0
2017-Nov-16 12:30N 44°24' E 008°55'0 0.0
2017-Nov-16 12:00N 44°24' E 008°55'0 0.0
2017-Nov-16 11:27N 44°24' E 008°55'0 0.0
2017-Nov-16 10:57N 44°24' E 008°55'0 0.0
2017-Nov-16 10:30N 44°24' E 008°55'0 0.0
2017-Nov-16 10:00N 44°24' E 008°55'0 0.0
2017-Nov-16 09:30N 44°24' E 008°55'0 0.0
2017-Nov-16 08:57N 44°24' E 008°55'0 0.0
2017-Nov-16 08:30N 44°24' E 008°55'0 0.0
2017-Nov-16 07:57N 44°24' E 008°55'0 0.0
2017-Nov-16 07:27N 44°24' E 008°55'0 0.0
2017-Nov-16 06:57N 44°24' E 008°55'1 1.8
2017-Nov-16 06:30N 44°24' E 008°56'3 6.2
2017-Nov-16 06:00N 44°21' E 008°59'1 1.6
2017-Nov-16 05:30N 44°21' E 008°59'1 1.1
2017-Nov-16 05:00N 44°20' E 008°60'0 0.9
2017-Nov-16 04:30N 44°21' E 008°59'0 0.4
2017-Nov-16 04:00N 44°21' E 008°59'3 5.8
2017-Nov-16 03:30N 44°18' E 008°59'5 9.7
2017-Nov-16 03:01N 44°14' E 008°54'1 1.9
2017-Nov-16 02:30N 44°15' E 008°55'1 1.7
2017-Nov-16 02:00N 44°15' E 008°56'1 1.5
2017-Nov-16 01:30N 44°16' E 008°57'1 1.2
2017-Nov-16 01:00N 44°16' E 008°58'0 0.9
2017-Nov-16 00:30N 44°16' E 008°59'0 0.8
2017-Nov-16 00:00N 44°16' E 008°59'0 0.9
2017-Nov-15 23:30N 44°16' E 008°60'1 1.0
2017-Nov-15 23:00N 44°17' E 009°00'0 1.0
2017-Nov-15 22:30N 44°17' E 009°01'0 0.7
2017-Nov-15 22:00N 44°17' E 009°01'0 0.1
2017-Nov-15 21:30N 44°17' E 009°01'2 5.0
2017-Nov-15 21:00N 44°15' E 008°59'3 6.5
2017-Nov-15 20:30N 44°13' E 008°55'1 1.8
2017-Nov-15 20:00N 44°14' E 008°56'1 2.3
2017-Nov-15 19:30N 44°15' E 008°57'1 2.2
2017-Nov-15 19:00N 44°15' E 008°59'1 1.9
2017-Nov-15 18:30N 44°16' E 008°60'1 1.6
2017-Nov-15 18:00N 44°16' E 009°01'1 1.5
2017-Nov-15 17:30N 44°17' E 009°01'1 1.4
2017-Nov-15 17:00N 44°17' E 009°02'1 1.3
2017-Nov-15 16:30N 44°18' E 009°02'1 1.3
2017-Nov-15 16:00N 44°19' E 009°01'1 1.3
2017-Nov-15 15:30N 44°19' E 009°01'2 4.8
2017-Nov-15 15:00N 44°17' E 009°01'611.3
2017-Nov-15 14:30N 44°13' E 008°55'1019.4
2017-Nov-15 14:00N 44°07' E 008°45'1019.5
2017-Nov-15 13:30N 44°01' E 008°34'1019.1
2017-Nov-15 13:00N 43°55' E 008°23'1019.1
2017-Nov-15 12:31N 43°49' E 008°13'1219.0
2017-Nov-15 11:52N 43°41' E 008°00'718.9
2017-Nov-15 11:30N 43°36' E 007°53'1119.6
2017-Nov-15 10:58N 43°29' E 007°43'920.2
2017-Nov-15 10:31N 43°22' E 007°34'1020.5
2017-Nov-15 10:00N 43°15' E 007°25'1020.5
2017-Nov-15 09:30N 43°06' E 007°16'1020.1
2017-Nov-15 09:00N 42°59' E 007°08'8917.7
2017-Nov-15 03:58N 43°08' E 005°06'919.2
2017-Nov-15 03:30N 43°16' E 004°60'714.4
2017-Nov-15 03:00N 43°23' E 004°57'1 0.0
2017-Nov-14 09:29N 43°23' E 004°57'4 8.7
2017-Nov-14 09:00N 43°19' E 004°59'9 8.6
2017-Nov-14 07:59N 43°11' E 005°03'  
2017-Nov-12 01:43N 38°10' E 000°17'2416.1
2017-Nov-12 00:15N 37°51' W 000°01'415.8
2017-Nov-12 00:00N 37°47' W 000°04'815.7
2017-Nov-11 23:30N 37°41' W 000°09'815.6
2017-Nov-11 22:59N 37°35' W 000°16'715.4
2017-Nov-11 22:30N 37°29' W 000°22'1415.2
2017-Nov-11 21:34N 37°20' W 000°36'115.2
2017-Nov-11 21:30N 37°20' W 000°37'815.3
2017-Nov-11 21:00N 37°15' W 000°45'815.4
2017-Nov-11 20:30N 37°11' W 000°52'915.3
2017-Nov-11 19:57N 37°05' W 001°01'715.3
2017-Nov-11 19:28N 37°01' W 001°08'20413.7
2017-Nov-11 04:36N 36°00' W 005°10'113.5
2017-Nov-11 04:30N 36°00' W 005°12'713.6
2017-Nov-11 04:00N 35°59' W 005°20'612.5
2017-Nov-11 03:30N 35°57' W 005°27'6 0.2
2017-Nov-10 02:05N 35°57' W 005°34'1 8.6
2017-Nov-10 02:00N 35°57' W 005°34'3 6.9
2017-Nov-10 01:30N 35°59' W 005°30'4 7.0
2017-Nov-10 01:00N 35°60' W 005°25'611.3
2017-Nov-10 00:30N 36°01' W 005°19'713.2
2017-Nov-10 00:00N 36°03' W 005°11'  
Track history (hours):
 
Tides and Currents Weather Stations Pressure Air Temp Water Temp Dewpoint Dewpoint Depression Visibility Wind Speed Wind Dir Waves Ship Positions

Tolten

Last reported at 2017-Nov-19 17:25 UTC. Time now 2017-Nov-19 18:20 UTC.
Position N 43°02' E 009°36'.

Length 300 m; draft 8 m.

Type: Ship (hazmat cat D). MMSI: 636015355.

Date/timePositionNaut miles runAvg speedWind from/ knotsBaromVisibWave heightAir tempDewpointWater temp
2017-Nov-19 17:25N 43°02' E 009°36'819.8
2017-Nov-19 17:00N 43°10' E 009°36'1020.6
2017-Nov-19 16:30N 43°20' E 009°39'1020.8
2017-Nov-19 16:00N 43°30' E 009°42'1021.0
2017-Nov-19 15:30N 43°40' E 009°45'1020.8
2017-Nov-19 15:00N 43°50' E 009°48'1019.6
2017-Nov-19 14:30N 43°60' E 009°52'611.7
2017-Nov-19 14:00N 44°06' E 009°51'1 1.4
2017-Nov-19 13:22N 44°06' E 009°51'0 0.0
2017-Nov-19 12:58N 44°06' E 009°51'0 0.0
2017-Nov-19 12:28N 44°06' E 009°51'0 0.0
2017-Nov-19 11:58N 44°06' E 009°51'0 0.0
2017-Nov-19 11:28N 44°06' E 009°51'0 0.0
2017-Nov-19 10:58N 44°06' E 009°51'0 0.0
2017-Nov-19 10:28N 44°06' E 009°51'0 0.0
2017-Nov-19 09:58N 44°06' E 009°51'0 0.0
2017-Nov-19 09:28N 44°06' E 009°51'0 0.0
2017-Nov-19 08:58N 44°06' E 009°51'0 0.0
2017-Nov-19 08:28N 44°06' E 009°51'0 0.0
2017-Nov-19 07:58N 44°06' E 009°51'0 0.0
2017-Nov-19 07:28N 44°06' E 009°51'0 0.0
2017-Nov-19 06:58N 44°06' E 009°51'0 0.0
2017-Nov-19 06:28N 44°06' E 009°51'0 0.0
2017-Nov-19 05:58N 44°06' E 009°51'0 0.0
2017-Nov-19 05:28N 44°06' E 009°51'0 0.0
2017-Nov-19 04:58N 44°06' E 009°51'0 0.0
2017-Nov-19 04:28N 44°06' E 009°51'0 0.0
2017-Nov-19 03:58N 44°06' E 009°51'0 0.0
2017-Nov-19 03:25N 44°06' E 009°51'0 0.0
2017-Nov-19 02:58N 44°06' E 009°51'0 0.0
2017-Nov-19 02:25N 44°06' E 009°51'0 0.0
2017-Nov-19 01:58N 44°06' E 009°51'0 0.0
2017-Nov-19 01:25N 44°06' E 009°51'0 0.0
2017-Nov-19 00:58N 44°06' E 009°51'0 0.0
2017-Nov-19 00:28N 44°06' E 009°51'0 0.0
2017-Nov-18 23:55N 44°06' E 009°51'0 0.0
2017-Nov-18 23:28N 44°06' E 009°51'0 0.0
2017-Nov-18 22:58N 44°06' E 009°51'0 0.0
2017-Nov-18 22:28N 44°06' E 009°51'0 0.0
2017-Nov-18 22:01N 44°06' E 009°51'1 1.4
2017-Nov-18 21:30N 44°06' E 009°51'5 9.1
2017-Nov-18 21:01N 44°02' E 009°54'612.1
2017-Nov-18 20:30N 43°56' E 009°56'4 7.5
2017-Nov-18 20:01N 43°53' E 009°52'0 0.7
2017-Nov-18 19:31N 43°53' E 009°52'0 0.6
2017-Nov-18 19:01N 43°52' E 009°52'0 0.6
2017-Nov-18 18:31N 43°52' E 009°52'0 0.6
2017-Nov-18 18:00N 43°52' E 009°52'0 0.6
2017-Nov-18 17:30N 43°52' E 009°51'0 0.6
2017-Nov-18 17:01N 43°51' E 009°51'1 2.0
2017-Nov-18 16:31N 43°51' E 009°52'2 3.8
2017-Nov-18 16:01N 43°53' E 009°52'0 0.8
2017-Nov-18 15:31N 43°53' E 009°52'0 0.6
2017-Nov-18 15:01N 43°52' E 009°52'0 0.6
2017-Nov-18 14:31N 43°52' E 009°51'5 9.2
2017-Nov-18 14:01N 43°51' E 009°45'612.5
2017-Nov-18 13:31N 43°55' E 009°39'612.1
2017-Nov-18 13:01N 43°58' E 009°32'612.0
2017-Nov-18 12:31N 44°02' E 009°25'612.2
2017-Nov-18 12:01N 44°06' E 009°19'612.2
2017-Nov-18 11:31N 44°10' E 009°12'612.7
2017-Nov-18 11:01N 44°14' E 009°05'612.4
2017-Nov-18 10:31N 44°18' E 008°59'510.6
2017-Nov-18 10:01N 44°23' E 008°56'2 3.1
2017-Nov-18 09:30N 44°24' E 008°55'0 0.0
2017-Nov-18 09:00N 44°24' E 008°55'0 0.0
2017-Nov-18 08:30N 44°24' E 008°55'0 0.0
2017-Nov-18 07:57N 44°24' E 008°55'0 0.0
2017-Nov-18 07:30N 44°24' E 008°55'0 0.0
2017-Nov-18 07:00N 44°24' E 008°55'0 0.0
2017-Nov-18 06:30N 44°24' E 008°55'0 0.0
2017-Nov-18 06:00N 44°24' E 008°55'0 0.0
2017-Nov-18 05:27N 44°24' E 008°55'0 0.0
2017-Nov-18 04:57N 44°24' E 008°55'0 0.0
2017-Nov-18 04:27N 44°24' E 008°55'0 0.0
2017-Nov-18 04:00N 44°24' E 008°55'0 0.0
2017-Nov-18 03:27N 44°24' E 008°55'0 0.0
2017-Nov-18 03:00N 44°24' E 008°55'0 0.0
2017-Nov-18 02:30N 44°24' E 008°55'0 0.0
2017-Nov-18 02:00N 44°24' E 008°55'0 0.0
2017-Nov-18 01:30N 44°24' E 008°55'0 0.0
2017-Nov-18 01:00N 44°24' E 008°55'0 0.0
2017-Nov-18 00:30N 44°24' E 008°55'0 0.0
2017-Nov-18 00:00N 44°24' E 008°55'0 0.0
2017-Nov-17 23:30N 44°24' E 008°55'0 0.0
2017-Nov-17 23:00N 44°24' E 008°55'0 0.0
2017-Nov-17 22:30N 44°24' E 008°55'0 0.0
2017-Nov-17 22:00N 44°24' E 008°55'0 0.0
2017-Nov-17 21:30N 44°24' E 008°55'0 0.0
2017-Nov-17 21:00N 44°24' E 008°55'0 0.0
2017-Nov-17 20:30N 44°24' E 008°55'0 0.0
2017-Nov-17 20:00N 44°24' E 008°55'0 0.0
2017-Nov-17 19:30N 44°24' E 008°55'0 0.0
2017-Nov-17 19:00N 44°24' E 008°55'0 0.0
2017-Nov-17 18:30N 44°24' E 008°55'0 0.0
2017-Nov-17 18:00N 44°24' E 008°55'0 0.0
2017-Nov-17 17:30N 44°24' E 008°55'0 0.0
2017-Nov-17 17:00N 44°24' E 008°55'0 0.0
2017-Nov-17 16:30N 44°24' E 008°55'0 0.0
2017-Nov-17 16:00N 44°24' E 008°55'0 0.0
2017-Nov-17 15:30N 44°24' E 008°55'0 0.0
2017-Nov-17 15:00N 44°24' E 008°55'0 0.0
2017-Nov-17 14:30N 44°24' E 008°55'0 0.0
2017-Nov-17 14:00N 44°24' E 008°55'0 0.0
2017-Nov-17 13:27N 44°24' E 008°55'0 0.0
2017-Nov-17 13:00N 44°24' E 008°55'0 0.0
2017-Nov-17 12:27N 44°24' E 008°55'0 0.0
2017-Nov-17 12:00N 44°24' E 008°55'0 0.0
2017-Nov-17 11:30N 44°24' E 008°55'0 0.0
2017-Nov-17 11:00N 44°24' E 008°55'0 0.0
2017-Nov-17 10:30N 44°24' E 008°55'0 0.0
2017-Nov-17 10:00N 44°24' E 008°55'0 0.0
2017-Nov-17 09:30N 44°24' E 008°55'0 0.0
2017-Nov-17 08:57N 44°24' E 008°55'0 0.0
2017-Nov-17 08:30N 44°24' E 008°55'0 0.0
2017-Nov-17 08:00N 44°24' E 008°55'0 0.0
2017-Nov-17 07:30N 44°24' E 008°55'0 0.0
2017-Nov-17 07:00N 44°24' E 008°55'0 0.0
2017-Nov-17 06:30N 44°24' E 008°55'0 0.0
2017-Nov-17 06:00N 44°24' E 008°55'0 0.0
2017-Nov-17 05:30N 44°24' E 008°55'0 0.0
2017-Nov-17 05:00N 44°24' E 008°55'0 0.0
2017-Nov-17 04:30N 44°24' E 008°55'0 0.0
2017-Nov-17 04:00N 44°24' E 008°55'0 0.0
2017-Nov-17 03:30N 44°24' E 008°55'0 0.0
2017-Nov-17 03:00N 44°24' E 008°55'0 0.0
2017-Nov-17 02:30N 44°24' E 008°55'0 0.0
2017-Nov-17 02:00N 44°24' E 008°55'0 0.0
2017-Nov-17 01:30N 44°24' E 008°55'0 0.0
2017-Nov-17 01:00N 44°24' E 008°55'0 0.0
2017-Nov-17 00:27N 44°24' E 008°55'0 0.0
2017-Nov-17 00:00N 44°24' E 008°55'0 0.0
2017-Nov-16 23:30N 44°24' E 008°55'0 0.0
2017-Nov-16 22:57N 44°24' E 008°55'0 0.0
2017-Nov-16 22:30N 44°24' E 008°55'0 0.0
2017-Nov-16 21:57N 44°24' E 008°55'0 0.0
2017-Nov-16 21:30N 44°24' E 008°55'0 0.0
2017-Nov-16 20:57N 44°24' E 008°55'0 0.0
2017-Nov-16 20:30N 44°24' E 008°55'0 0.0
2017-Nov-16 20:00N 44°24' E 008°55'0 0.0
2017-Nov-16 19:30N 44°24' E 008°55'0 0.0
2017-Nov-16 19:00N 44°24' E 008°55'0 0.0
2017-Nov-16 18:30N 44°24' E 008°55'0 0.0
2017-Nov-16 18:00N 44°24' E 008°55'0 0.0
2017-Nov-16 17:30N 44°24' E 008°55'0 0.0
2017-Nov-16 17:00N 44°24' E 008°55'0 0.0
2017-Nov-16 16:30N 44°24' E 008°55'0 0.0
2017-Nov-16 16:00N 44°24' E 008°55'0 0.0
2017-Nov-16 15:30N 44°24' E 008°55'0 0.0
2017-Nov-16 15:00N 44°24' E 008°55'0 0.0
2017-Nov-16 14:30N 44°24' E 008°55'0 0.0
2017-Nov-16 14:00N 44°24' E 008°55'0 0.0
2017-Nov-16 13:30N 44°24' E 008°55'0 0.0
2017-Nov-16 13:00N 44°24' E 008°55'0 0.0
2017-Nov-16 12:30N 44°24' E 008°55'0 0.0
2017-Nov-16 12:00N 44°24' E 008°55'0 0.0
2017-Nov-16 11:27N 44°24' E 008°55'0 0.0
2017-Nov-16 10:57N 44°24' E 008°55'0 0.0
2017-Nov-16 10:30N 44°24' E 008°55'0 0.0
2017-Nov-16 10:00N 44°24' E 008°55'0 0.0
2017-Nov-16 09:30N 44°24' E 008°55'0 0.0
2017-Nov-16 08:57N 44°24' E 008°55'0 0.0
2017-Nov-16 08:30N 44°24' E 008°55'0 0.0
2017-Nov-16 07:57N 44°24' E 008°55'0 0.0
2017-Nov-16 07:27N 44°24' E 008°55'0 0.0
2017-Nov-16 06:57N 44°24' E 008°55'1 1.8
2017-Nov-16 06:30N 44°24' E 008°56'3 6.2
2017-Nov-16 06:00N 44°21' E 008°59'1 1.6
2017-Nov-16 05:30N 44°21' E 008°59'1 1.1
2017-Nov-16 05:00N 44°20' E 008°60'0 0.9
2017-Nov-16 04:30N 44°21' E 008°59'0 0.4
2017-Nov-16 04:00N 44°21' E 008°59'3 5.8
2017-Nov-16 03:30N 44°18' E 008°59'5 9.7
2017-Nov-16 03:01N 44°14' E 008°54'1 1.9
2017-Nov-16 02:30N 44°15' E 008°55'1 1.7
2017-Nov-16 02:00N 44°15' E 008°56'1 1.5
2017-Nov-16 01:30N 44°16' E 008°57'1 1.2
2017-Nov-16 01:00N 44°16' E 008°58'0 0.9
2017-Nov-16 00:30N 44°16' E 008°59'0 0.8
2017-Nov-16 00:00N 44°16' E 008°59'0 0.9
2017-Nov-15 23:30N 44°16' E 008°60'1 1.0
2017-Nov-15 23:00N 44°17' E 009°00'0 1.0
2017-Nov-15 22:30N 44°17' E 009°01'0 0.7
2017-Nov-15 22:00N 44°17' E 009°01'0 0.1
2017-Nov-15 21:30N 44°17' E 009°01'2 5.0
2017-Nov-15 21:00N 44°15' E 008°59'3 6.5
2017-Nov-15 20:30N 44°13' E 008°55'1 1.8
2017-Nov-15 20:00N 44°14' E 008°56'1 2.3
2017-Nov-15 19:30N 44°15' E 008°57'1 2.2
2017-Nov-15 19:00N 44°15' E 008°59'1 1.9
2017-Nov-15 18:30N 44°16' E 008°60'1 1.6
2017-Nov-15 18:00N 44°16' E 009°01'1 1.5
2017-Nov-15 17:30N 44°17' E 009°01'1 1.4
2017-Nov-15 17:00N 44°17' E 009°02'1 1.3
2017-Nov-15 16:30N 44°18' E 009°02'1 1.3
2017-Nov-15 16:00N 44°19' E 009°01'1 1.3
2017-Nov-15 15:30N 44°19' E 009°01'2 4.8
2017-Nov-15 15:00N 44°17' E 009°01'611.3
2017-Nov-15 14:30N 44°13' E 008°55'1019.4
2017-Nov-15 14:00N 44°07' E 008°45'1019.5
2017-Nov-15 13:30N 44°01' E 008°34'1019.1
2017-Nov-15 13:00N 43°55' E 008°23'1019.1
2017-Nov-15 12:31N 43°49' E 008°13'1219.0
2017-Nov-15 11:52N 43°41' E 008°00'718.9
2017-Nov-15 11:30N 43°36' E 007°53'1119.6
2017-Nov-15 10:58N 43°29' E 007°43'920.2
2017-Nov-15 10:31N 43°22' E 007°34'1020.5
2017-Nov-15 10:00N 43°15' E 007°25'1020.5
2017-Nov-15 09:30N 43°06' E 007°16'1020.1
2017-Nov-15 09:00N 42°59' E 007°08'8917.7
2017-Nov-15 03:58N 43°08' E 005°06'919.2
2017-Nov-15 03:30N 43°16' E 004°60'714.4
2017-Nov-15 03:00N 43°23' E 004°57'1 0.0
2017-Nov-14 09:29N 43°23' E 004°57'4 8.7
2017-Nov-14 09:00N 43°19' E 004°59'9 8.6
2017-Nov-14 07:59N 43°11' E 005°03'  
2017-Nov-12 01:43N 38°10' E 000°17'2416.1
2017-Nov-12 00:15N 37°51' W 000°01'415.8
2017-Nov-12 00:00N 37°47' W 000°04'815.7
2017-Nov-11 23:30N 37°41' W 000°09'815.6
2017-Nov-11 22:59N 37°35' W 000°16'715.4
2017-Nov-11 22:30N 37°29' W 000°22'1415.2
2017-Nov-11 21:34N 37°20' W 000°36'115.2
2017-Nov-11 21:30N 37°20' W 000°37'815.3
2017-Nov-11 21:00N 37°15' W 000°45'815.4
2017-Nov-11 20:30N 37°11' W 000°52'915.3
2017-Nov-11 19:57N 37°05' W 001°01'715.3
2017-Nov-11 19:28N 37°01' W 001°08'20413.7
2017-Nov-11 04:36N 36°00' W 005°10'113.5
2017-Nov-11 04:30N 36°00' W 005°12'713.6
2017-Nov-11 04:00N 35°59' W 005°20'612.5
2017-Nov-11 03:30N 35°57' W 005°27'6 0.2
2017-Nov-10 02:05N 35°57' W 005°34'1 8.6
2017-Nov-10 02:00N 35°57' W 005°34'3 6.9
2017-Nov-10 01:30N 35°59' W 005°30'4 7.0
2017-Nov-10 01:00N 35°60' W 005°25'611.3
2017-Nov-10 00:30N 36°01' W 005°19'713.2
2017-Nov-10 00:00N 36°03' W 005°11'  

Dump ship's entire track history